createdAt,value
2018-11-14T00:00:33.676Z,142727.44
2018-11-14T00:03:03.838Z,142790.80
2018-11-14T00:05:33.276Z,142785.83
2018-11-14T00:08:02.642Z,142785.83
2018-11-14T00:10:32.160Z,142819.34
2018-11-14T00:13:01.412Z,142755.97
2018-11-14T00:15:30.846Z,142691.47
2018-11-14T00:18:00.183Z,142686.50
2018-11-14T00:20:29.516Z,142664.19
2018-11-14T00:22:58.787Z,142702.66
2018-11-14T00:25:28.253Z,142684.03
2018-11-14T00:27:57.653Z,142711.33
2018-11-14T00:30:27.300Z,142661.72
2018-11-14T00:32:56.788Z,142662.92
2018-11-14T00:35:26.192Z,142680.33
2018-11-14T00:37:55.402Z,142667.89
2018-11-14T00:40:24.832Z,142706.37
2018-11-14T00:42:54.128Z,142708.83
2018-11-14T00:45:23.605Z,142741.12
2018-11-14T00:47:53.198Z,142717.55
2018-11-14T00:50:22.595Z,142696.44
2018-11-14T00:52:52.023Z,142751.02
2018-11-14T00:55:22.518Z,142701.41
2018-11-14T00:57:52.919Z,142763.50
2018-11-14T01:00:24.607Z,142675.36
2018-11-14T01:02:54.139Z,142705.11
2018-11-14T01:05:23.621Z,142682.78
2018-11-14T01:07:52.917Z,142696.44
2018-11-14T01:10:22.995Z,142724.97
2018-11-14T01:12:52.699Z,142697.69
2018-11-14T01:15:23.124Z,142737.37
2018-11-14T01:17:52.772Z,142758.48
2018-11-14T01:20:23.015Z,142681.53
2018-11-14T01:22:52.467Z,142739.87
2018-11-14T01:25:21.925Z,142813.12
2018-11-14T01:27:51.445Z,142728.69
2018-11-14T01:30:22.120Z,142733.66
2018-11-14T01:32:51.893Z,142682.78
2018-11-14T01:35:21.714Z,142671.61
2018-11-14T01:37:51.228Z,142711.33
2018-11-14T01:40:22.316Z,142768.47
2018-11-14T01:42:53.927Z,142657.95
2018-11-14T01:45:23.307Z,142731.19
2018-11-14T01:47:52.697Z,142687.75
2018-11-14T01:50:22.064Z,142656.75
2018-11-14T01:52:51.610Z,142648.03
2018-11-14T01:55:21.606Z,142681.53
2018-11-14T01:57:51.028Z,142732.41
2018-11-14T02:00:23.714Z,142693.97
2018-11-14T02:02:53.166Z,142760.94
2018-11-14T02:05:22.659Z,142698.94
2018-11-14T02:07:52.135Z,142661.72
2018-11-14T02:10:21.841Z,142629.42
2018-11-14T02:12:51.229Z,142698.94
2018-11-14T02:15:23.742Z,142689.00
2018-11-14T02:17:53.665Z,142692.72
2018-11-14T02:20:23.075Z,142691.47
2018-11-14T02:22:52.598Z,142660.47
2018-11-14T02:25:21.899Z,142696.44
2018-11-14T02:27:51.357Z,142747.30
2018-11-14T02:30:22.245Z,142711.33
2018-11-14T02:32:51.709Z,142649.28
2018-11-14T02:35:21.190Z,142591.02
2018-11-14T02:37:50.797Z,142654.25
2018-11-14T02:40:22.084Z,142605.86
2018-11-14T02:42:51.524Z,142695.19
2018-11-14T02:45:20.905Z,142619.55
2018-11-14T02:47:50.614Z,142655.50
2018-11-14T02:50:20.259Z,142636.89
2018-11-14T02:52:49.777Z,142623.25
2018-11-14T02:55:19.082Z,142597.19
2018-11-14T02:57:48.647Z,142629.42
2018-11-14T03:00:21.114Z,142656.75
2018-11-14T03:02:50.352Z,142630.67
2018-11-14T03:05:19.865Z,142650.53
2018-11-14T03:07:49.215Z,142633.19
2018-11-14T03:10:20.448Z,142629.42
2018-11-14T03:12:50.245Z,142640.61
2018-11-14T03:15:21.839Z,142689.00
2018-11-14T03:17:51.233Z,142669.14
2018-11-14T03:20:21.460Z,142598.44
2018-11-14T03:22:50.750Z,142708.83
2018-11-14T03:25:20.023Z,142680.33
2018-11-14T03:27:49.421Z,142716.30
2018-11-14T03:30:19.119Z,142646.83
2018-11-14T03:32:48.646Z,142695.19
2018-11-14T03:35:18.037Z,142655.50
2018-11-14T03:37:47.532Z,142615.78
2018-11-14T03:40:17.513Z,142641.86
2018-11-14T03:42:46.873Z,142587.25
2018-11-14T03:45:16.348Z,142588.50
2018-11-14T03:47:45.761Z,142602.14
2018-11-14T03:50:15.218Z,142703.91
2018-11-14T03:52:44.648Z,142640.61
2018-11-14T03:55:14.888Z,142657.95
2018-11-14T03:57:44.467Z,142639.34
2018-11-14T04:00:15.311Z,142644.31
2018-11-14T04:02:46.018Z,142641.86
2018-11-14T04:05:15.201Z,142628.22
2018-11-14T04:07:44.574Z,142661.72
2018-11-14T04:10:14.569Z,142693.97
2018-11-14T04:12:44.260Z,142669.14
2018-11-14T04:15:14.679Z,142659.22
2018-11-14T04:17:43.917Z,142659.22
2018-11-14T04:20:14.589Z,142626.97
2018-11-14T04:22:43.950Z,142689.00
2018-11-14T04:25:15.959Z,142603.41
2018-11-14T04:27:46.006Z,142653.00
2018-11-14T04:30:16.906Z,142636.89
2018-11-14T04:32:46.384Z,142662.92
2018-11-14T04:35:16.833Z,142656.75
2018-11-14T04:37:46.327Z,142667.89
2018-11-14T04:40:18.657Z,142633.19
2018-11-14T04:42:47.983Z,142641.86
2018-11-14T04:45:20.524Z,142737.37
2018-11-14T04:47:49.872Z,142646.83
2018-11-14T04:50:20.812Z,142653.00
2018-11-14T04:52:50.507Z,142690.22
2018-11-14T04:55:20.747Z,142700.14
2018-11-14T04:57:50.463Z,142669.14
2018-11-14T05:00:21.049Z,142682.78
2018-11-14T05:02:50.979Z,142696.44
2018-11-14T05:05:21.422Z,142649.28
2018-11-14T05:07:50.725Z,142698.94
2018-11-14T05:10:21.995Z,142649.28
2018-11-14T05:12:51.782Z,142677.81
2018-11-14T05:15:22.247Z,142671.61
2018-11-14T05:17:52.039Z,142662.92
2018-11-14T05:20:22.000Z,142670.41
2018-11-14T05:22:51.741Z,142681.53
2018-11-14T05:25:21.498Z,142752.27
2018-11-14T05:27:50.899Z,142702.66
2018-11-14T05:30:21.521Z,142713.78
2018-11-14T05:32:51.271Z,142738.63
2018-11-14T05:35:20.633Z,142669.14
2018-11-14T05:37:50.367Z,142715.05
2018-11-14T05:40:21.854Z,142715.05
2018-11-14T05:42:51.737Z,142748.56
2018-11-14T05:45:26.220Z,142755.97
2018-11-14T05:47:55.746Z,142775.91
2018-11-14T05:50:25.234Z,142732.41
2018-11-14T05:52:54.836Z,142748.56
2018-11-14T05:55:24.302Z,142747.30
2018-11-14T05:57:53.805Z,142850.38
2018-11-14T06:00:27.875Z,142765.97
2018-11-14T06:02:57.407Z,142784.58
2018-11-14T06:05:26.923Z,142783.38
2018-11-14T06:07:56.379Z,142738.63
2018-11-14T06:10:25.790Z,142790.80
2018-11-14T06:12:55.189Z,142742.33
2018-11-14T06:15:24.580Z,142736.16
2018-11-14T06:17:54.725Z,142682.78
2018-11-14T06:20:24.288Z,142765.97
2018-11-14T06:22:54.090Z,142787.09
2018-11-14T06:25:26.214Z,142788.34
2018-11-14T06:27:56.380Z,142826.78
2018-11-14T06:30:25.927Z,142844.19
2018-11-14T06:32:55.817Z,142873.95
2018-11-14T06:35:25.173Z,142928.63
2018-11-14T06:37:55.010Z,142861.56
2018-11-14T06:40:24.463Z,142908.75
2018-11-14T06:42:53.843Z,142885.16
2018-11-14T06:45:24.457Z,143016.80
2018-11-14T06:47:54.896Z,142924.86
2018-11-14T06:50:24.349Z,143021.77
2018-11-14T06:52:56.052Z,143131.06
2018-11-14T06:55:25.454Z,143071.44
2018-11-14T06:57:54.943Z,143001.88
2018-11-14T07:00:29.562Z,143072.69
2018-11-14T07:02:59.596Z,142964.63
2018-11-14T07:05:29.188Z,143075.16
2018-11-14T07:07:58.640Z,143168.45
2018-11-14T07:10:30.284Z,143124.89
2018-11-14T07:13:04.640Z,143128.61
2018-11-14T07:15:34.221Z,143078.92
2018-11-14T07:18:03.656Z,143072.69
2018-11-14T07:20:36.263Z,143153.53
2018-11-14T07:23:05.921Z,143093.80
2018-11-14T07:25:35.467Z,143113.69
2018-11-14T07:28:04.881Z,143015.53
2018-11-14T07:30:34.946Z,143004.34
2018-11-14T07:33:08.566Z,143098.77
2018-11-14T07:35:38.175Z,143117.41
2018-11-14T07:38:43.542Z,143153.53
2018-11-14T07:41:18.028Z,143257.91
2018-11-14T07:43:47.570Z,143233.06
2018-11-14T07:46:17.009Z,143312.64
2018-11-14T07:48:47.443Z,143251.72
2018-11-14T07:51:16.881Z,143224.38
2018-11-14T07:53:46.468Z,143298.97
2018-11-14T07:56:16.041Z,143320.09
2018-11-14T07:58:45.424Z,143397.22
2018-11-14T08:01:14.957Z,143459.44
2018-11-14T08:03:44.496Z,143490.56
2018-11-14T08:06:13.854Z,143505.50
2018-11-14T08:08:43.520Z,143476.84
2018-11-14T08:11:12.926Z,143311.39
2018-11-14T08:13:43.833Z,143361.16
2018-11-14T08:16:13.335Z,143287.77
2018-11-14T08:18:42.844Z,143448.22
2018-11-14T08:21:12.140Z,143310.13
2018-11-14T08:23:41.533Z,143291.48
2018-11-14T08:26:10.786Z,143362.38
2018-11-14T08:28:40.079Z,143235.53
2018-11-14T08:31:09.495Z,143274.09
2018-11-14T08:33:39.286Z,143490.56
2018-11-14T08:36:08.889Z,143624.97
2018-11-14T08:38:38.427Z,143583.89
2018-11-14T08:41:07.852Z,143414.63
2018-11-14T08:43:37.275Z,143568.95
2018-11-14T08:46:07.243Z,143598.84
2018-11-14T08:48:36.776Z,143629.94
2018-11-14T08:51:06.550Z,143515.47
2018-11-14T08:53:35.840Z,143386.00
2018-11-14T08:56:05.451Z,143573.94
2018-11-14T08:58:34.998Z,143475.58
2018-11-14T09:01:04.433Z,143374.84
2018-11-14T09:03:33.672Z,143399.69
2018-11-14T09:06:03.084Z,143387.25
2018-11-14T09:08:32.379Z,143335.02
2018-11-14T09:11:01.868Z,143354.92
2018-11-14T09:13:31.065Z,143420.84
2018-11-14T09:16:00.601Z,143402.20
2018-11-14T09:18:30.194Z,143414.63
2018-11-14T09:20:59.708Z,143519.19
2018-11-14T09:23:28.903Z,143335.02
2018-11-14T09:25:58.437Z,143575.19
2018-11-14T09:28:27.860Z,143566.48
2018-11-14T09:30:57.296Z,143676.05
2018-11-14T09:33:26.788Z,143737.06
2018-11-14T09:35:56.098Z,143705.91
2018-11-14T09:38:25.427Z,144031.16
2018-11-14T09:40:55.020Z,143941.41
2018-11-14T09:43:24.632Z,143770.66
2018-11-14T09:45:54.203Z,143729.56
2018-11-14T09:48:23.587Z,143521.66
2018-11-14T09:50:52.969Z,143552.80
2018-11-14T09:53:22.475Z,143586.41
2018-11-14T09:55:51.845Z,143570.22
2018-11-14T09:58:21.294Z,143535.34
2018-11-14T10:00:50.737Z,143402.20
2018-11-14T10:03:20.162Z,143379.81
2018-11-14T10:05:49.686Z,143627.48
2018-11-14T10:08:19.004Z,143501.78
2018-11-14T10:10:48.482Z,143593.86
2018-11-14T10:13:17.772Z,143681.03
2018-11-14T10:15:47.039Z,143775.64
2018-11-14T10:18:16.339Z,143702.17
2018-11-14T10:20:45.738Z,143648.63
2018-11-14T10:23:14.993Z,143619.98
2018-11-14T10:25:44.317Z,143738.28
2018-11-14T10:28:13.681Z,143613.78
2018-11-14T10:30:43.103Z,143810.59
2018-11-14T10:33:12.549Z,143616.25
2018-11-14T10:35:41.912Z,143473.11
2018-11-14T10:38:11.361Z,143562.77
2018-11-14T10:40:40.802Z,143845.48
2018-11-14T10:43:10.405Z,143750.77
2018-11-14T10:45:40.000Z,143471.86
2018-11-14T10:48:09.443Z,143483.08
2018-11-14T10:50:38.928Z,143465.63
2018-11-14T10:53:08.396Z,143790.59
2018-11-14T10:55:37.949Z,143899.03
2018-11-14T10:58:07.256Z,143912.73
2018-11-14T11:00:41.346Z,143980.05
2018-11-14T11:03:13.147Z,143775.64
2018-11-14T11:05:47.388Z,143804.34
2018-11-14T11:09:19.559Z,143568.95
2018-11-14T11:11:54.041Z,143709.63
2018-11-14T11:14:28.362Z,143743.27
2018-11-14T11:17:02.853Z,143943.92
2018-11-14T11:19:32.656Z,143950.13
2018-11-14T11:22:01.904Z,143727.09
2018-11-14T11:24:31.377Z,143532.87
2018-11-14T11:27:00.858Z,143493.03
2018-11-14T11:29:30.320Z,143677.27
2018-11-14T11:31:59.989Z,143641.17
2018-11-14T11:34:29.430Z,143559.00
2018-11-14T11:36:58.915Z,143546.56
2018-11-14T11:39:28.245Z,143654.86
2018-11-14T11:41:57.534Z,143526.64
2018-11-14T11:44:26.805Z,143537.86
2018-11-14T11:46:56.191Z,143556.53
2018-11-14T11:49:25.535Z,143578.91
2018-11-14T11:51:55.099Z,143466.88
2018-11-14T11:54:24.649Z,143433.28
2018-11-14T11:56:54.221Z,143469.39
2018-11-14T11:59:24.093Z,143480.56
2018-11-14T12:01:53.355Z,143415.88
2018-11-14T12:04:22.559Z,143585.16
2018-11-14T12:06:51.878Z,143619.98
2018-11-14T12:09:21.373Z,143631.20
2018-11-14T12:11:50.774Z,143449.47
2018-11-14T12:14:20.176Z,143617.52
2018-11-14T12:16:49.751Z,143631.20
2018-11-14T12:19:19.143Z,143774.44
2018-11-14T12:21:48.698Z,143937.67
2018-11-14T12:24:18.178Z,143833.00
2018-11-14T12:26:47.601Z,143946.39
2018-11-14T12:29:16.959Z,143899.03
2018-11-14T12:31:46.216Z,143581.44
2018-11-14T12:34:15.719Z,143434.53
2018-11-14T12:36:45.040Z,143437.00
2018-11-14T12:39:14.582Z,143456.91
2018-11-14T12:41:44.029Z,143815.56
2018-11-14T12:44:13.442Z,143781.88
2018-11-14T12:46:42.957Z,143749.50
2018-11-14T12:49:12.332Z,143841.72
2018-11-14T12:51:41.562Z,143524.17
2018-11-14T12:54:11.003Z,143454.45
2018-11-14T12:56:40.408Z,143521.66
2018-11-14T12:59:09.817Z,143732.08
2018-11-14T13:01:39.232Z,143468.13
2018-11-14T13:04:08.482Z,143423.31
2018-11-14T13:06:37.894Z,143354.92
2018-11-14T13:09:08.987Z,143444.50
2018-11-14T13:11:38.631Z,143581.44
2018-11-14T13:14:08.087Z,143756.95
2018-11-14T13:16:37.581Z,143479.30
2018-11-14T13:19:07.027Z,143376.05
2018-11-14T13:21:36.445Z,143359.91
2018-11-14T13:24:06.153Z,143327.58
2018-11-14T13:26:35.560Z,143340.00
2018-11-14T13:29:05.129Z,143376.05
2018-11-14T13:31:34.559Z,143486.80
2018-11-14T13:34:04.124Z,143432.02
2018-11-14T13:36:34.654Z,143359.91
2018-11-14T13:39:05.382Z,143369.86
2018-11-14T13:41:34.990Z,143340.00
2018-11-14T13:44:04.435Z,143384.75
2018-11-14T13:46:33.858Z,143400.94
2018-11-14T13:49:03.399Z,143499.27
2018-11-14T13:51:32.798Z,143405.92
2018-11-14T13:54:02.156Z,143317.62
2018-11-14T13:56:31.548Z,143260.41
2018-11-14T13:59:00.712Z,143262.87
2018-11-14T14:01:30.082Z,143294.00
2018-11-14T14:03:59.537Z,143349.95
2018-11-14T14:06:29.036Z,143290.28
2018-11-14T14:08:58.314Z,143259.16
2018-11-14T14:11:27.977Z,143234.33
2018-11-14T14:14:02.476Z,143241.77
2018-11-14T14:16:32.076Z,143236.80
2018-11-14T14:19:01.539Z,143183.33
2018-11-14T14:21:30.961Z,143189.56
2018-11-14T14:24:00.404Z,143197.00
2018-11-14T14:26:29.891Z,143185.83
2018-11-14T14:28:59.573Z,143188.30
2018-11-14T14:31:29.790Z,143193.28
2018-11-14T14:33:59.264Z,143199.50
2018-11-14T14:36:28.668Z,143193.28
2018-11-14T14:38:58.060Z,143187.09
2018-11-14T14:41:27.489Z,143352.42
2018-11-14T14:43:56.906Z,143291.48
2018-11-14T14:46:27.065Z,143296.45
2018-11-14T14:48:56.764Z,143198.25
2018-11-14T14:51:26.118Z,143187.09
2018-11-14T14:53:55.681Z,143179.61
2018-11-14T14:56:25.436Z,143165.94
2018-11-14T14:58:54.672Z,143165.94
2018-11-14T15:01:24.285Z,143163.47
2018-11-14T15:03:53.745Z,143168.45
2018-11-14T15:06:23.104Z,143159.70
2018-11-14T15:08:52.614Z,143158.50
2018-11-14T15:11:22.117Z,143162.22
2018-11-14T15:13:51.629Z,143194.53
2018-11-14T15:16:21.006Z,143174.63
2018-11-14T15:18:50.423Z,143177.14
2018-11-14T15:21:19.943Z,143160.97
2018-11-14T15:23:49.488Z,143170.91
2018-11-14T15:26:18.989Z,143163.47
2018-11-14T15:28:48.468Z,143151.02
2018-11-14T15:31:17.863Z,143164.69
2018-11-14T15:33:47.412Z,143167.19
2018-11-14T15:36:17.036Z,143184.58
2018-11-14T15:38:46.546Z,143174.63
2018-11-14T15:41:16.028Z,143170.91
2018-11-14T15:43:46.464Z,143172.16
2018-11-14T15:46:15.941Z,143168.45
2018-11-14T15:48:45.507Z,143168.45
2018-11-14T15:51:15.046Z,143190.81
2018-11-14T15:53:44.834Z,143188.30
2018-11-14T15:56:14.315Z,143173.37
2018-11-14T15:58:44.159Z,143159.70
2018-11-14T16:01:13.970Z,143170.91
2018-11-14T16:03:43.427Z,143190.81
2018-11-14T16:06:13.562Z,143177.14
2018-11-14T16:08:43.055Z,143187.09
2018-11-14T16:11:12.344Z,143189.56
2018-11-14T16:13:41.710Z,143178.34
2018-11-14T16:16:11.153Z,143195.78
2018-11-14T16:18:40.520Z,143184.58
2018-11-14T16:21:10.043Z,143184.58
2018-11-14T16:23:39.544Z,143133.58
2018-11-14T16:26:08.952Z,143142.27
2018-11-14T16:28:38.359Z,143139.81
2018-11-14T16:31:07.634Z,143141.02
2018-11-14T16:33:37.220Z,143122.38
2018-11-14T16:36:06.806Z,143119.92
2018-11-14T16:38:36.385Z,143182.11
2018-11-14T16:41:05.861Z,143128.61
2018-11-14T16:43:35.338Z,143243.03
2018-11-14T16:46:04.861Z,143170.91
2018-11-14T16:48:34.238Z,143158.50
2018-11-14T16:51:04.207Z,143153.53
2018-11-14T16:53:33.637Z,143151.02
2018-11-14T16:56:03.105Z,143159.70
2018-11-14T16:58:32.592Z,143157.25
2018-11-14T17:01:02.223Z,143141.02
2018-11-14T17:03:31.705Z,143148.56
2018-11-14T17:06:01.102Z,143131.06
2018-11-14T17:08:30.499Z,143139.81
2018-11-14T17:11:00.126Z,143131.06
2018-11-14T17:13:29.556Z,143192.06
2018-11-14T17:15:59.089Z,143178.34
2018-11-14T17:18:28.607Z,143144.78
2018-11-14T17:20:57.919Z,143142.27
2018-11-14T17:23:27.428Z,143148.56
2018-11-14T17:25:57.070Z,143143.53
2018-11-14T17:28:26.472Z,143165.94
2018-11-14T17:30:55.745Z,143123.63
2018-11-14T17:33:25.168Z,143137.30
2018-11-14T17:35:54.600Z,143131.06
2018-11-14T17:38:23.949Z,143123.63
2018-11-14T17:40:53.373Z,143114.94
2018-11-14T17:43:22.739Z,143136.05
2018-11-14T17:45:52.146Z,143173.37
2018-11-14T17:48:21.710Z,143134.84
2018-11-14T17:50:51.220Z,143116.20
2018-11-14T17:53:20.594Z,143138.56
2018-11-14T17:55:50.134Z,143203.22
2018-11-14T17:58:19.507Z,143162.22
2018-11-14T18:00:48.943Z,143113.69
2018-11-14T18:03:18.399Z,143113.69
2018-11-14T18:05:48.012Z,143157.25
2018-11-14T18:08:17.499Z,143108.72
2018-11-14T18:10:46.949Z,143121.17
2018-11-14T18:13:16.420Z,143146.00
2018-11-14T18:15:45.875Z,143105.00
2018-11-14T18:18:15.145Z,143114.94
2018-11-14T18:20:44.509Z,143054.06
2018-11-14T18:23:13.945Z,143082.64
2018-11-14T18:25:43.460Z,143057.78
2018-11-14T18:28:12.880Z,143064.00
2018-11-14T18:30:42.441Z,143054.06
2018-11-14T18:33:11.600Z,143059.03
2018-11-14T18:35:41.134Z,143070.19
2018-11-14T18:38:10.566Z,143055.31
2018-11-14T18:40:40.050Z,143040.41
2018-11-14T18:43:09.343Z,143036.69
2018-11-14T18:45:38.646Z,143016.80
2018-11-14T18:48:08.339Z,143044.11
2018-11-14T18:50:37.674Z,143031.72
2018-11-14T18:53:07.082Z,143011.83
2018-11-14T18:55:36.581Z,143027.94
2018-11-14T18:58:06.589Z,143014.28
2018-11-14T19:00:36.565Z,143011.83
2018-11-14T19:03:05.819Z,143026.73
2018-11-14T19:05:35.915Z,143018.05
2018-11-14T19:08:05.265Z,143006.84
2018-11-14T19:10:35.095Z,142995.66
2018-11-14T19:13:04.452Z,143001.88
2018-11-14T19:15:34.894Z,142999.42
2018-11-14T19:18:04.361Z,143008.11
2018-11-14T19:20:34.715Z,143014.28
2018-11-14T19:23:04.997Z,143023.03
2018-11-14T19:25:35.898Z,143067.72
2018-11-14T19:28:05.408Z,143088.83
2018-11-14T19:30:36.265Z,143208.19
2018-11-14T19:33:05.675Z,143177.14
2018-11-14T19:35:35.002Z,143096.31
2018-11-14T19:38:04.224Z,143026.73
2018-11-14T19:40:35.148Z,143019.25
2018-11-14T19:43:06.008Z,143029.20
2018-11-14T19:45:36.458Z,143049.09
2018-11-14T19:48:06.095Z,143026.73
2018-11-14T19:50:35.586Z,143036.69
2018-11-14T19:53:05.140Z,143029.20
2018-11-14T19:55:35.322Z,143039.14
2018-11-14T19:58:05.254Z,143054.06
2018-11-14T20:00:35.657Z,143054.06
2018-11-14T20:03:05.259Z,143066.47
2018-11-14T20:05:34.922Z,143045.37
2018-11-14T20:08:04.160Z,143073.95
2018-11-14T20:10:34.248Z,143046.58
2018-11-14T20:13:03.637Z,143049.09
2018-11-14T20:15:34.281Z,143044.11
2018-11-14T20:18:03.582Z,143026.73
2018-11-14T20:20:34.238Z,143005.59
2018-11-14T20:23:03.714Z,143001.88
2018-11-14T20:25:33.140Z,143006.84
2018-11-14T20:28:02.673Z,142995.66
2018-11-14T20:30:33.415Z,143006.84
2018-11-14T20:33:04.388Z,143044.11
2018-11-14T20:35:33.804Z,142985.72
2018-11-14T20:38:03.397Z,142989.47
2018-11-14T20:40:32.827Z,142991.94
2018-11-14T20:43:02.411Z,143014.28
2018-11-14T20:45:33.315Z,142991.94
2018-11-14T20:48:02.776Z,142996.91
2018-11-14T20:50:32.270Z,142979.53
2018-11-14T20:53:03.121Z,142984.50
2018-11-14T20:55:33.301Z,143008.11
2018-11-14T20:58:02.996Z,142972.05
2018-11-14T21:00:33.472Z,142964.63
2018-11-14T21:03:02.930Z,142999.42
2018-11-14T21:05:32.803Z,142999.42
2018-11-14T21:08:01.995Z,142973.31
2018-11-14T21:10:32.975Z,142952.22
2018-11-14T21:13:03.034Z,142928.63
2018-11-14T21:15:33.967Z,142929.83
2018-11-14T21:18:03.698Z,142958.39
2018-11-14T21:20:33.127Z,142939.77
2018-11-14T21:23:02.674Z,142942.28
2018-11-14T21:25:32.045Z,142923.66
2018-11-14T21:28:01.319Z,142898.81
2018-11-14T21:30:31.449Z,142888.86
2018-11-14T21:33:01.025Z,142903.78
2018-11-14T21:35:32.237Z,142901.27
2018-11-14T21:38:02.996Z,142922.39
2018-11-14T21:40:32.427Z,142861.56
2018-11-14T21:43:01.928Z,142856.59
2018-11-14T21:45:31.435Z,142888.86
2018-11-14T21:48:05.780Z,142895.09
2018-11-14T21:50:35.114Z,142862.81
2018-11-14T21:53:04.735Z,142800.73
2018-11-14T21:55:34.144Z,142823.06
2018-11-14T21:58:03.712Z,142820.61
2018-11-14T22:00:34.208Z,142818.09
2018-11-14T22:03:04.108Z,142798.22
2018-11-14T22:05:33.784Z,142810.67
2018-11-14T22:08:03.148Z,142828.03
2018-11-14T22:10:32.886Z,142828.03
2018-11-14T22:13:03.629Z,142840.44
2018-11-14T22:15:33.260Z,142823.06
2018-11-14T22:18:02.672Z,142805.70
2018-11-14T22:20:32.120Z,142829.28
2018-11-14T22:23:01.707Z,142820.61
2018-11-14T22:25:31.263Z,142830.55
2018-11-14T22:28:00.836Z,142836.72
2018-11-14T22:30:32.310Z,142870.25
2018-11-14T22:33:01.884Z,142841.69
2018-11-14T22:35:32.411Z,142870.25
2018-11-14T22:38:01.762Z,142875.22
2018-11-14T22:40:31.985Z,142886.41
2018-11-14T22:43:01.520Z,142861.56
2018-11-14T22:45:32.112Z,142868.98
2018-11-14T22:48:01.750Z,142885.16
2018-11-14T22:50:31.596Z,142957.19
2018-11-14T22:53:00.995Z,142943.48
2018-11-14T22:55:30.602Z,142964.63
2018-11-14T22:57:59.799Z,143011.83
2018-11-14T23:00:37.953Z,143096.31
2018-11-14T23:03:07.439Z,143016.80
2018-11-14T23:05:37.069Z,143096.31
2018-11-14T23:08:06.658Z,143108.72
2018-11-14T23:10:36.130Z,143103.75
2018-11-14T23:13:05.434Z,143006.84
2018-11-14T23:15:34.694Z,143077.67
2018-11-14T23:18:03.966Z,143116.20
2018-11-14T23:20:33.386Z,143015.53
2018-11-14T23:23:03.131Z,143041.66
2018-11-14T23:25:32.466Z,142891.38
2018-11-14T23:28:01.771Z,142974.56
2018-11-14T23:30:31.262Z,142991.94
2018-11-14T23:33:00.668Z,142948.45
2018-11-14T23:35:31.015Z,142847.91
2018-11-14T23:38:01.752Z,142903.78
2018-11-14T23:40:31.387Z,142876.47
2018-11-14T23:43:00.730Z,142906.23
2018-11-14T23:45:30.561Z,142919.89
2018-11-14T23:47:59.984Z,142902.52
2018-11-14T23:50:30.642Z,142849.16
2018-11-14T23:53:00.957Z,142857.84
2018-11-14T23:55:30.932Z,142895.09
2018-11-14T23:58:00.473Z,142908.75
